createdAt,value
2019-03-20T00:01:51.000Z,38.411
2019-03-20T00:11:51.000Z,38.459
2019-03-20T00:21:51.000Z,38.553
2019-03-20T00:31:51.000Z,38.58
2019-03-20T00:41:51.000Z,38.415
2019-03-20T00:51:51.000Z,38.398
2019-03-20T01:01:51.000Z,38.438
2019-03-20T01:11:51.000Z,38.408
2019-03-20T01:21:51.000Z,38.457
2019-03-20T01:31:51.000Z,38.407
2019-03-20T01:41:51.000Z,38.327
2019-03-20T01:51:51.000Z,38.344
2019-03-20T02:01:51.000Z,38.287
2019-03-20T02:11:51.000Z,38.229
2019-03-20T02:21:52.000Z,38.064
2019-03-20T02:31:52.000Z,38.167
2019-03-20T02:41:51.000Z,38.044
2019-03-20T02:51:51.000Z,38.051
2019-03-20T03:01:51.000Z,37.984
2019-03-20T03:11:51.000Z,38.044
2019-03-20T03:21:55.000Z,37.912
2019-03-20T03:31:51.000Z,37.8
2019-03-20T03:41:51.000Z,37.893
2019-03-20T03:51:52.000Z,37.826
2019-03-20T04:01:51.000Z,37.758
2019-03-20T04:11:51.000Z,37.593
2019-03-20T04:21:51.000Z,37.591
2019-03-20T04:31:51.000Z,37.716
2019-03-20T04:41:51.000Z,37.681
2019-03-20T04:51:51.000Z,37.806
2019-03-20T05:01:51.000Z,37.502
2019-03-20T05:11:51.000Z,37.715
2019-03-20T05:21:51.000Z,37.563
2019-03-20T05:31:51.000Z,37.604
2019-03-20T05:41:51.000Z,37.473
2019-03-20T05:51:51.000Z,37.536
2019-03-20T06:01:51.000Z,37.546
2019-03-20T06:11:51.000Z,37.448
2019-03-20T06:21:51.000Z,37.427
2019-03-20T06:31:51.000Z,37.308
2019-03-20T06:41:51.000Z,37.063
2019-03-20T06:51:51.000Z,36.787
2019-03-20T07:01:51.000Z,38.237
2019-03-20T07:11:51.000Z,38.559
2019-03-20T07:21:51.000Z,38.573
2019-03-20T07:31:52.000Z,38.533
2019-03-20T07:41:52.000Z,38.416
2019-03-20T07:51:52.000Z,38.203
2019-03-20T08:01:52.000Z,38.282
2019-03-20T08:11:52.000Z,37.676
2019-03-20T08:21:52.000Z,36.849
2019-03-20T08:31:52.000Z,36.43
2019-03-20T08:41:52.000Z,36.5
2019-03-20T08:51:52.000Z,36.429
2019-03-20T09:01:52.000Z,36.335
2019-03-20T09:11:52.000Z,36.316
2019-03-20T09:21:52.000Z,36.307
2019-03-20T09:31:52.000Z,36.2
2019-03-20T09:41:52.000Z,36.049
2019-03-20T09:51:52.000Z,35.902
2019-03-20T10:01:52.000Z,35.892
2019-03-20T10:11:52.000Z,35.721
2019-03-20T10:21:52.000Z,35.701
2019-03-20T10:31:52.000Z,35.736
2019-03-20T10:41:52.000Z,35.752
2019-03-20T10:51:52.000Z,35.726
2019-03-20T11:01:52.000Z,36.357
2019-03-20T11:11:53.000Z,36.293
2019-03-20T11:21:52.000Z,36.197
2019-03-20T11:31:52.000Z,36.024
2019-03-20T11:41:52.000Z,35.96
2019-03-20T11:51:52.000Z,35.96
2019-03-20T12:01:52.000Z,35.615
2019-03-20T12:21:52.000Z,35.594
2019-03-20T12:41:52.000Z,35.575
2019-03-20T12:51:52.000Z,35.557
2019-03-20T13:01:52.000Z,35.869
2019-03-20T13:11:52.000Z,36.216
2019-03-20T13:21:52.000Z,37.25
2019-03-20T13:31:52.000Z,37.397
2019-03-20T13:41:52.000Z,37.29
2019-03-20T13:51:52.000Z,37.263
2019-03-20T14:01:52.000Z,37.425
2019-03-20T14:11:52.000Z,37.336
2019-03-20T14:21:52.000Z,37.336
2019-03-20T14:31:52.000Z,37.279
2019-03-20T14:41:52.000Z,37.399
2019-03-20T14:51:52.000Z,37.202
2019-03-20T15:01:52.000Z,37.244
2019-03-20T15:11:53.000Z,37.167
2019-03-20T15:21:52.000Z,37.091
2019-03-20T15:31:52.000Z,37.046
2019-03-20T15:41:53.000Z,37.1
2019-03-20T15:51:54.000Z,36.991
2019-03-20T16:01:53.000Z,36.947
2019-03-20T16:11:53.000Z,36.927
2019-03-20T16:21:53.000Z,37.083
2019-03-20T16:31:53.000Z,37.062
2019-03-20T16:41:54.000Z,37.457
2019-03-20T16:51:53.000Z,37.452
2019-03-20T17:01:53.000Z,38.572
2019-03-20T17:11:53.000Z,38.274
2019-03-20T17:21:53.000Z,38.602
2019-03-20T17:31:53.000Z,38.524
2019-03-20T17:41:53.000Z,38.475
2019-03-20T17:51:54.000Z,38.427
2019-03-20T18:01:56.000Z,38.176
2019-03-20T18:11:53.000Z,38.25
2019-03-20T18:21:53.000Z,38.274
2019-03-20T18:31:53.000Z,38.196
2019-03-20T18:41:54.000Z,38.106
2019-03-20T18:51:53.000Z,37.986
2019-03-20T19:01:57.000Z,38.041
2019-03-20T19:11:53.000Z,38.148
2019-03-20T19:21:54.000Z,37.997
2019-03-20T19:31:53.000Z,38.019
2019-03-20T19:41:53.000Z,38.051
2019-03-20T19:51:53.000Z,38.128
2019-03-20T20:01:53.000Z,38.382
2019-03-20T20:11:53.000Z,38.653
2019-03-20T20:21:53.000Z,38.901
2019-03-20T20:31:53.000Z,38.764
2019-03-20T20:41:56.000Z,38.566
2019-03-20T20:51:53.000Z,39.215
2019-03-20T21:01:53.000Z,38.807
2019-03-20T21:11:53.000Z,38.829
2019-03-20T21:21:53.000Z,39.117
2019-03-20T21:51:53.000Z,38.85
2019-03-20T22:01:53.000Z,39.151
2019-03-20T22:11:53.000Z,39.059
2019-03-20T22:21:53.000Z,39.056
2019-03-20T22:31:53.000Z,39.042
2019-03-20T22:41:53.000Z,39.06
2019-03-20T22:51:56.000Z,38.95
2019-03-20T23:01:53.000Z,39.032
2019-03-20T23:11:53.000Z,39.104
2019-03-20T23:21:53.000Z,39.111
2019-03-20T23:31:53.000Z,39
2019-03-20T23:41:53.000Z,39.16
2019-03-20T23:51:56.000Z,39.252
